Time;durP1;ratioP1;P1;durP2;ratioP2;P2;SDS_P1;SDS_P2;PMS_P1;PMS_P2;Temp;Humidity;BMP_temperature;BMP_pressure;BME280_temperature;BME280_humidity;BME280_pressure;Samples;Min_cycle;Max_cycle;Signal;HPM_P1;HPM_P2
2021/05/25 00:00:22;;;;;;;3.40;0.70;;;;;;;10.18;84.39;100061.09;646673;220;24824;-79
2021/05/25 00:02:50;;;;;;;1.63;0.83;;;;;;;10.12;83.69;100065.89;648475;221;24802;-78
2021/05/25 00:05:18;;;;;;;5.13;1.00;;;;;;;10.17;83.80;100063.36;649905;221;24021;-78
2021/05/25 00:07:45;;;;;;;2.70;0.80;;;;;;;10.17;83.75;100064.66;637345;225;24845;-79
2021/05/25 00:10:14;;;;;;;1.70;0.80;;;;;;;10.18;83.41;100061.09;649057;221;24840;-79
2021/05/25 00:12:42;;;;;;;1.97;0.97;;;;;;;10.07;84.68;100068.12;636781;224;24882;-77
2021/05/25 00:15:12;;;;;;;1.80;0.90;;;;;;;10.06;83.85;100065.67;650384;220;24863;-76
2021/05/25 00:17:40;;;;;;;2.12;0.80;;;;;;;10.15;84.37;100064.80;630250;225;32851;-79
2021/05/25 00:20:09;;;;;;;2.53;1.00;;;;;;;10.11;83.88;100060.84;648252;220;23681;-78
2021/05/25 00:22:38;;;;;;;4.40;0.73;;;;;;;10.12;84.23;100063.29;637071;225;24950;-78
2021/05/25 00:25:06;;;;;;;1.57;0.93;;;;;;;10.02;84.07;100063.84;649694;221;24768;-79
2021/05/25 00:27:34;;;;;;;2.70;0.97;;;;;;;9.98;83.24;100059.88;636408;223;24956;-78
2021/05/25 00:30:02;;;;;;;2.20;0.80;;;;;;;10.04;83.35;100060.63;635687;225;24846;-79
2021/05/25 00:32:30;;;;;;;3.00;0.87;;;;;;;10.10;83.10;100057.91;636928;225;24831;-78
2021/05/25 00:34:58;;;;;;;3.03;0.80;;;;;;;10.18;83.21;100053.30;637014;224;24941;-79
2021/05/25 00:37:26;;;;;;;1.73;0.80;;;;;;;10.07;82.62;100047.33;648127;221;24827;-79
2021/05/25 00:39:54;;;;;;;2.20;0.90;;;;;;;10.12;82.98;100053.38;643460;223;24836;-78
2021/05/25 00:42:22;;;;;;;3.03;0.70;;;;;;;10.09;81.92;100045.40;640088;223;24855;-78
2021/05/25 00:44:51;;;;;;;2.10;0.80;;;;;;;9.99;81.59;100057.65;637021;225;24823;-78
2021/05/25 00:47:28;;;;;;;1.80;0.90;;;;;;;10.01;81.20;100051.01;637038;224;24876;-76
2021/05/25 00:50:09;;;;;;;1.50;0.80;;;;;;;9.94;81.31;100055.13;638481;224;24857;-78
2021/05/25 00:52:24;;;;;;;2.00;0.80;;;;;;;10.06;80.54;100049.59;631372;225;43292;-78
2021/05/25 00:54:52;;;;;;;2.40;0.70;;;;;;;9.96;81.25;100047.52;636546;225;23769;-79
2021/05/25 00:57:20;;;;;;;2.53;1.13;;;;;;;9.97;80.91;100049.64;634734;225;24852;-78
2021/05/25 00:59:47;;;;;;;2.80;0.83;;;;;;;9.95;80.33;100048.49;648477;221;28016;-78
2021/05/25 01:02:15;;;;;;;3.00;0.97;;;;;;;9.93;81.00;100056.91;643696;221;23938;-77
2021/05/25 01:04:43;;;;;;;4.50;1.07;;;;;;;9.90;80.69;100052.02;652434;220;28003;-78
2021/05/25 01:07:12;;;;;;;1.60;1.00;;;;;;;9.90;80.55;100057.21;650820;220;27090;-78
2021/05/25 01:09:39;;;;;;;1.60;0.90;;;;;;;9.90;80.25;100055.91;644350;223;24892;-77
2021/05/25 01:12:08;;;;;;;2.83;1.10;;;;;;;9.86;81.56;100068.05;640951;222;28251;-78
2021/05/25 01:14:37;;;;;;;1.23;0.80;;;;;;;9.87;81.16;100067.08;641111;222;24871;-78
2021/05/25 01:17:04;;;;;;;2.50;0.80;;;;;;;9.82;81.48;100067.01;637590;225;24848;-78
2021/05/25 01:19:31;;;;;;;1.83;0.80;;;;;;;9.87;80.56;100074.39;637929;225;23866;-78
2021/05/25 01:22:00;;;;;;;1.93;0.90;;;;;;;9.86;81.43;100069.34;636743;225;24826;-76
2021/05/25 01:24:31;;;;;;;3.63;0.70;;;;;;;9.81;81.40;100080.14;639486;221;24852;-77
2021/05/25 01:27:02;;;;;;;1.52;0.60;;;;;;;9.81;80.79;100083.55;641536;221;33084;-78
2021/05/25 01:29:30;;;;;;;2.20;0.90;;;;;;;9.80;81.51;100081.10;628224;225;32789;-78
2021/05/25 01:31:58;;;;;;;2.80;0.80;;;;;;;9.69;81.73;100084.70;646328;220;23814;-78
2021/05/25 01:34:26;;;;;;;4.30;0.93;;;;;;;9.75;81.52;100088.52;633466;225;24845;-77
2021/05/25 01:36:54;;;;;;;8.83;1.00;;;;;;;9.66;81.81;100086.28;637021;225;24886;-78
2021/05/25 01:39:22;;;;;;;3.73;0.90;;;;;;;9.64;82.19;100088.69;649047;221;23863;-78
2021/05/25 01:41:52;;;;;;;1.70;0.93;;;;;;;9.63;81.95;100090.47;631372;225;24883;-77
2021/05/25 01:44:21;;;;;;;1.80;0.80;;;;;;;9.60;81.61;100098.55;648664;221;31305;-77
2021/05/25 01:46:49;;;;;;;1.07;0.80;;;;;;;9.65;81.33;100094.22;649626;219;24833;-77
2021/05/25 01:49:17;;;;;;;1.20;0.80;;;;;;;9.63;81.53;100099.56;649676;221;24824;-77
2021/05/25 01:51:47;;;;;;;1.00;0.70;;;;;;;9.69;81.87;100102.05;633270;225;24845;-77
2021/05/25 01:54:15;;;;;;;1.50;1.10;;;;;;;9.69;81.56;100103.35;648557;220;24819;-76
2021/05/25 01:56:43;;;;;;;0.80;0.80;;;;;;;9.64;81.25;100099.08;649614;220;24816;-78
2021/05/25 01:59:11;;;;;;;3.70;0.80;;;;;;;9.59;80.57;100107.30;651176;220;28005;-77
2021/05/25 02:01:40;;;;;;;2.20;0.77;;;;;;;9.56;81.06;100101.06;634828;225;24876;-77
2021/05/25 02:04:07;;;;;;;2.70;0.73;;;;;;;9.58;81.56;100108.27;648502;220;24814;-76
2021/05/25 02:06:35;;;;;;;3.80;0.70;;;;;;;9.66;80.28;100107.06;648681;221;24802;-76
2021/05/25 02:09:03;;;;;;;1.80;0.80;;;;;;;9.59;80.13;100096.91;649395;221;24820;-77
2021/05/25 02:11:31;;;;;;;2.93;0.90;;;;;;;9.56;80.93;100108.86;634656;225;25177;-76
2021/05/25 02:13:59;;;;;;;2.00;0.80;;;;;;;9.56;80.36;100101.55;650665;220;24841;-77
2021/05/25 02:16:27;;;;;;;1.10;1.00;;;;;;;9.47;80.67;100105.34;646989;221;24824;-77
2021/05/25 02:18:55;;;;;;;2.00;1.00;;;;;;;9.57;80.04;100108.37;649061;220;24912;-77
2021/05/25 02:21:23;;;;;;;3.20;0.80;;;;;;;9.52;80.76;100110.11;647272;221;24829;-77
2021/05/25 02:23:51;;;;;;;1.90;1.20;;;;;;;9.40;81.22;100113.34;637082;223;25032;-77
2021/05/25 02:26:19;;;;;;;1.83;0.87;;;;;;;9.46;81.07;100127.55;638431;225;25427;-77
2021/05/25 02:28:47;;;;;;;1.60;0.60;;;;;;;9.59;80.83;100128.07;633232;224;32673;-77
2021/05/25 02:31:15;;;;;;;1.80;0.90;;;;;;;9.50;80.69;100128.91;638564;224;24859;-77
2021/05/25 02:33:43;;;;;;;5.57;0.80;;;;;;;9.47;81.01;100130.01;637920;225;24898;-78
2021/05/25 02:36:11;;;;;;;2.30;0.97;;;;;;;9.50;80.90;100133.61;640867;221;24841;-77
2021/05/25 02:38:39;;;;;;;1.50;0.90;;;;;;;9.52;81.22;100138.66;638770;221;24899;-77
2021/05/25 02:41:07;;;;;;;4.00;1.03;;;;;;;9.58;81.17;100133.41;646186;221;24848;-77
2021/05/25 02:43:35;;;;;;;2.30;0.77;;;;;;;9.70;80.68;100140.05;645717;221;26033;-77
2021/05/25 02:46:03;;;;;;;2.00;0.80;;;;;;;9.73;80.44;100144.50;647266;221;24863;-76
2021/05/25 02:48:31;;;;;;;1.97;0.93;;;;;;;9.78;79.92;100138.87;637465;225;24847;-76
2021/05/25 02:50:59;;;;;;;4.05;0.82;;;;;;;10.09;78.76;100140.73;632194;223;32646;-78
2021/05/25 02:53:26;;;;;;;6.15;1.10;;;;;;;10.11;78.89;100138.80;633127;225;32602;-75
2021/05/25 02:55:56;;;;;;;1.90;0.90;;;;;;;9.92;79.97;100145.39;650331;219;23718;-78
2021/05/25 02:58:24;;;;;;;2.10;1.00;;;;;;;10.14;78.78;100148.11;647088;221;24818;-78
2021/05/25 03:00:52;;;;;;;4.90;0.93;;;;;;;10.07;79.10;100150.45;648038;219;24818;-78
2021/05/25 03:03:20;;;;;;;1.80;0.90;;;;;;;10.14;79.88;100144.22;634865;225;24908;-78
2021/05/25 03:05:48;;;;;;;1.83;0.70;;;;;;;10.11;79.32;100147.89;647818;221;24940;-78
2021/05/25 03:08:16;;;;;;;8.93;1.07;;;;;;;10.10;79.76;100137.98;648386;221;24825;-78
2021/05/25 03:10:44;;;;;;;5.13;1.00;;;;;;;9.95;80.13;100144.61;646882;221;24813;-78
2021/05/25 03:13:12;;;;;;;3.20;0.70;;;;;;;9.93;80.72;100150.44;637525;225;28031;-78
2021/05/25 03:15:40;;;;;;;0.90;0.70;;;;;;;9.94;80.24;100156.45;645605;221;24836;-79
2021/05/25 03:18:08;;;;;;;1.50;0.70;;;;;;;9.95;80.56;100160.68;640160;221;24854;-80
2021/05/25 03:20:36;;;;;;;3.93;0.97;;;;;;;9.97;80.96;100167.36;638831;221;27225;-77
2021/05/25 03:23:04;;;;;;;3.03;1.00;;;;;;;9.89;80.13;100151.69;646805;220;24836;-78
2021/05/25 03:25:32;;;;;;;1.43;0.83;;;;;;;9.94;79.53;100159.86;646780;221;24835;-79
2021/05/25 03:28:00;;;;;;;2.30;0.90;;;;;;;9.93;80.22;100154.33;647654;221;24812;-77
2021/05/25 03:30:28;;;;;;;3.20;1.07;;;;;;;9.97;79.96;100158.75;647431;221;23834;-76
2021/05/25 03:32:56;;;;;;;4.53;0.93;;;;;;;9.97;79.63;100154.38;649211;221;24816;-79
2021/05/25 03:35:23;;;;;;;2.50;1.20;;;;;;;10.00;80.14;100162.39;650652;218;24809;-78
2021/05/25 03:37:51;;;;;;;2.37;0.83;;;;;;;9.95;80.52;100164.58;650943;220;30535;-78
2021/05/25 03:40:20;;;;;;;5.43;0.80;;;;;;;9.93;80.50;100163.42;644797;220;24870;-78
2021/05/25 03:42:48;;;;;;;4.77;1.20;;;;;;;9.94;79.87;100162.94;645820;220;24924;-77
2021/05/25 03:45:16;;;;;;;2.70;0.90;;;;;;;10.02;79.54;100170.38;649371;220;28001;-78
2021/05/25 03:47:44;;;;;;;1.33;0.83;;;;;;;9.96;79.66;100164.91;632909;225;25065;-78
2021/05/25 03:50:13;;;;;;;5.10;0.97;;;;;;;9.99;79.97;100166.77;649334;221;28001;-76
2021/05/25 03:52:41;;;;;;;2.47;1.10;;;;;;;10.00;79.58;100169.70;648472;220;24815;-77
2021/05/25 03:55:14;;;;;;;4.10;1.30;;;;;;;10.07;78.50;100165.56;647355;221;23851;-76
2021/05/25 04:00:14;;;;;;;1.90;0.80;;;;;;;9.97;79.16;100157.45;634892;225;24869;-77
2021/05/25 04:02:42;;;;;;;3.63;0.80;;;;;;;9.95;78.11;100161.50;637219;225;24830;-77
2021/05/25 04:05:12;;;;;;;2.10;0.70;;;;;;;9.95;78.41;100169.30;642973;221;24901;-78
2021/05/25 04:07:40;;;;;;;5.03;1.20;;;;;;;9.93;78.57;100163.42;644264;221;24904;-77
2021/05/25 04:10:09;;;;;;;2.43;1.00;;;;;;;9.95;78.80;100165.39;639212;221;24881;-77
2021/05/25 04:12:37;;;;;;;2.67;0.90;;;;;;;9.97;78.84;100167.84;638513;221;25418;-76
2021/05/25 04:15:06;;;;;;;4.77;1.10;;;;;;;10.08;78.67;100168.49;641157;221;24869;-77
2021/05/25 04:17:34;;;;;;;1.90;0.87;;;;;;;10.15;78.05;100163.56;637486;225;24849;-77
2021/05/25 04:20:02;;;;;;;3.13;1.20;;;;;;;10.11;78.55;100164.30;637396;224;24887;-77
2021/05/25 04:22:30;;;;;;;7.60;1.00;;;;;;;10.14;78.51;100174.92;648897;221;24819;-73
2021/05/25 04:24:58;;;;;;;2.57;0.90;;;;;;;10.15;77.98;100163.56;641778;221;32510;-72
2021/05/25 04:27:26;;;;;;;1.80;0.70;;;;;;;10.05;78.88;100165.38;636416;225;24910;-72
2021/05/25 04:29:54;;;;;;;2.00;0.80;;;;;;;9.97;78.56;100168.67;632340;222;39097;-73
2021/05/25 04:32:28;;;;;;;1.63;0.80;;;;;;;10.02;78.80;100180.77;642162;220;32598;-72
2021/05/25 04:34:56;;;;;;;2.33;0.90;;;;;;;10.15;78.51;100166.16;641941;221;43162;-73
2021/05/25 04:37:24;;;;;;;1.63;0.80;;;;;;;10.04;78.59;100167.16;648436;221;24894;-72
2021/05/25 04:39:52;;;;;;;3.83;0.90;;;;;;;10.15;78.07;100167.94;634598;225;24899;-72
2021/05/25 04:42:20;;;;;;;2.10;0.83;;;;;;;10.08;78.30;100167.67;638172;225;24893;-71
2021/05/25 04:44:48;;;;;;;2.40;0.80;;;;;;;10.03;78.76;100168.59;650098;221;24805;-71
2021/05/25 04:47:16;;;;;;;3.07;1.00;;;;;;;10.25;78.25;100164.83;632289;223;43624;-73
2021/05/25 04:49:43;;;;;;;4.03;0.80;;;;;;;10.28;78.22;100169.76;644351;221;24840;-72
2021/05/25 04:52:11;;;;;;;5.10;0.97;;;;;;;10.16;77.65;100167.80;637161;225;24851;-71
2021/05/25 04:54:39;;;;;;;2.50;0.70;;;;;;;10.19;77.29;100164.08;650954;220;24815;-73
2021/05/25 04:57:09;;;;;;;1.87;0.90;;;;;;;10.16;77.29;100179.97;638842;223;24865;-72
2021/05/25 04:59:35;;;;;;;1.37;0.87;;;;;;;10.21;77.26;100180.34;639874;224;27065;-71
2021/05/25 05:02:03;;;;;;;1.83;0.77;;;;;;;10.27;78.50;100188.89;638719;224;24870;-72
2021/05/25 05:04:31;;;;;;;2.47;0.70;;;;;;;10.11;77.45;100182.49;638678;224;24892;-72
2021/05/25 05:06:59;;;;;;;2.23;0.77;;;;;;;10.10;77.27;100184.76;631407;226;23873;-72
2021/05/25 05:09:27;;;;;;;2.00;0.80;;;;;;;10.11;77.05;100183.80;649004;220;24907;-73
2021/05/25 05:11:55;;;;;;;3.63;0.90;;;;;;;10.30;76.92;100188.63;648952;220;24825;-72
2021/05/25 05:14:23;;;;;;;1.20;0.77;;;;;;;10.23;77.15;100190.96;650824;220;24816;-72
2021/05/25 05:16:51;;;;;;;2.00;1.00;;;;;;;10.14;76.77;100187.91;639292;225;24879;-72
2021/05/25 05:19:19;;;;;;;2.47;0.73;;;;;;;10.23;76.80;100182.34;651108;220;24846;-72
2021/05/25 05:21:47;;;;;;;1.27;0.80;;;;;;;10.25;76.72;100186.92;636706;225;24887;-72
2021/05/25 05:24:15;;;;;;;4.40;1.00;;;;;;;10.53;75.89;100193.75;645003;220;32461;-72
2021/05/25 05:26:43;;;;;;;8.93;1.10;;;;;;;10.20;76.51;100198.20;647388;221;23741;-70
2021/05/25 05:29:11;;;;;;;2.23;0.93;;;;;;;10.19;75.65;100204.37;641080;223;24888;-73
2021/05/25 05:31:39;;;;;;;2.03;0.80;;;;;;;10.24;76.36;100203.48;642410;223;24902;-72
2021/05/25 05:34:07;;;;;;;1.30;0.73;;;;;;;10.17;75.57;100189.41;640518;222;24957;-71
2021/05/25 05:36:35;;;;;;;1.43;0.70;;;;;;;10.20;76.23;100199.50;641013;223;24842;-75
2021/05/25 05:39:03;;;;;;;4.40;0.93;;;;;;;10.25;75.62;100205.11;638878;223;24865;-72
2021/05/25 05:41:31;;;;;;;1.77;0.90;;;;;;;10.37;75.25;100214.37;639117;220;24881;-73
2021/05/25 05:43:59;;;;;;;4.30;1.20;;;;;;;10.29;75.21;100206.48;633173;221;32618;-72
2021/05/25 05:46:27;;;;;;;1.80;0.93;;;;;;;10.32;75.44;100199.70;640330;221;25139;-72
2021/05/25 05:48:55;;;;;;;5.20;0.77;;;;;;;10.37;76.64;100213.06;642494;221;24849;-72
2021/05/25 05:51:23;;;;;;;1.40;0.80;;;;;;;10.29;75.94;100215.58;640621;221;24871;-72
2021/05/25 05:53:51;;;;;;;2.30;0.93;;;;;;;10.25;76.95;100220.23;638005;221;23891;-72
2021/05/25 05:56:19;;;;;;;2.27;1.13;;;;;;;10.31;76.59;100230.55;637520;222;24877;-72
2021/05/25 05:58:47;;;;;;;3.07;0.80;;;;;;;10.30;76.58;100223.72;641627;220;24870;-73
2021/05/25 06:01:15;;;;;;;2.60;1.07;;;;;;;10.36;77.22;100223.95;650746;220;24853;-73
2021/05/25 06:03:43;;;;;;;3.00;0.90;;;;;;;10.43;77.63;100238.99;627018;224;24906;-72
2021/05/25 06:06:11;;;;;;;2.27;1.00;;;;;;;10.36;78.21;100245.23;650653;220;24796;-72
2021/05/25 06:08:39;;;;;;;1.80;0.83;;;;;;;10.24;78.36;100252.86;650229;221;24849;-73
2021/05/25 06:11:07;;;;;;;5.30;1.00;;;;;;;10.18;79.17;100253.41;640675;220;24866;-72
2021/05/25 06:13:34;;;;;;;1.60;0.80;;;;;;;10.11;81.40;100268.25;643144;221;24878;-72
2021/05/25 06:16:02;;;;;;;5.17;1.00;;;;;;;9.99;81.11;100260.75;641323;221;24843;-73
2021/05/25 06:18:30;;;;;;;5.83;1.00;;;;;;;10.15;81.72;100269.29;638462;221;24910;-74
2021/05/25 06:20:59;;;;;;;2.37;0.70;;;;;;;10.10;80.97;100269.70;637750;222;24868;-73
2021/05/25 06:23:26;;;;;;;5.20;0.83;;;;;;;10.24;80.86;100258.88;635321;225;24857;-73
2021/05/25 06:25:54;;;;;;;5.53;1.00;;;;;;;10.23;81.22;100262.92;648135;221;24824;-73
2021/05/25 06:28:22;;;;;;;4.60;1.70;;;;;;;10.51;80.75;100268.50;638202;224;24896;-73
2021/05/25 06:30:50;;;;;;;4.40;0.73;;;;;;;10.43;80.75;100267.11;636988;225;25211;-73
2021/05/25 06:33:18;;;;;;;1.90;0.97;;;;;;;10.47;80.42;100271.05;638123;223;26013;-73
2021/05/25 06:35:46;;;;;;;1.20;0.80;;;;;;;10.29;80.17;100273.59;629997;225;24896;-73
2021/05/25 06:38:14;;;;;;;1.47;1.00;;;;;;;10.34;80.81;100283.07;649032;221;24796;-73
2021/05/25 06:40:42;;;;;;;1.17;0.87;;;;;;;10.38;80.08;100288.80;638864;220;24857;-73
2021/05/25 06:43:10;;;;;;;3.93;1.57;;;;;;;10.47;81.21;100292.34;638691;221;24882;-73
2021/05/25 06:45:38;;;;;;;2.17;1.00;;;;;;;10.31;82.05;100299.44;637837;221;24871;-72
2021/05/25 06:48:06;;;;;;;2.67;1.10;;;;;;;10.10;82.98;100302.17;649103;221;24813;-73
2021/05/25 06:50:36;;;;;;;2.00;1.07;;;;;;;10.04;84.27;100316.56;634261;225;24993;-73
2021/05/25 06:53:02;;;;;;;3.50;1.10;;;;;;;10.19;84.53;100316.94;635961;225;24870;-73
2021/05/25 06:55:31;;;;;;;1.27;0.80;;;;;;;10.12;85.80;100319.27;636047;225;24906;-72
2021/05/25 06:57:58;;;;;;;1.53;0.93;;;;;;;9.95;86.10;100331.67;634581;225;25127;-71
2021/05/25 07:00:26;;;;;;;4.33;0.90;;;;;;;10.08;86.74;100341.30;644202;221;32491;-72
2021/05/25 07:02:54;;;;;;;7.50;1.30;;;;;;;9.94;85.80;100330.51;647748;221;24809;-72
2021/05/25 07:05:22;;;;;;;4.07;1.10;;;;;;;10.25;87.30;100341.09;636724;224;24883;-72
2021/05/25 07:07:50;;;;;;;2.50;1.07;;;;;;;10.41;86.08;100348.30;638742;224;24872;-71
2021/05/25 07:10:18;;;;;;;2.30;1.17;;;;;;;10.32;87.18;100341.38;637674;223;25919;-72
2021/05/25 07:12:46;;;;;;;3.60;1.10;;;;;;;10.03;88.51;100355.20;650586;220;24827;-73
2021/05/25 07:15:14;;;;;;;3.67;0.97;;;;;;;10.12;87.84;100356.95;644890;220;24881;-73
2021/05/25 07:17:46;;;;;;;2.20;0.90;;;;;;;10.31;90.03;100363.95;651071;220;26019;-73
2021/05/25 07:20:14;;;;;;;4.93;1.30;;;;;;;10.15;89.38;100361.55;650069;220;24818;-73
2021/05/25 07:22:42;;;;;;;2.90;1.43;;;;;;;10.34;88.87;100364.96;638242;224;24916;-73
2021/05/25 07:25:12;;;;;;;3.63;1.30;;;;;;;10.08;89.39;100356.07;637751;225;24859;-73
2021/05/25 07:27:40;;;;;;;2.67;1.20;;;;;;;10.10;87.81;100364.06;638281;223;24857;-73
2021/05/25 07:30:09;;;;;;;3.47;1.00;;;;;;;10.53;89.40;100364.09;632616;226;24876;-73
2021/05/25 07:32:38;;;;;;;2.10;0.90;;;;;;;10.48;88.21;100365.00;650492;219;25059;-72
2021/05/25 07:35:06;;;;;;;2.50;1.43;;;;;;;10.45;86.00;100352.29;650391;220;24814;-72
2021/05/25 07:37:34;;;;;;;2.93;0.90;;;;;;;10.51;85.88;100362.11;649783;220;24866;-73
2021/05/25 07:40:02;;;;;;;3.27;0.77;;;;;;;10.28;85.81;100363.41;651719;220;24883;-72
2021/05/25 07:42:30;;;;;;;1.83;1.07;;;;;;;10.28;86.21;100380.31;635389;224;23927;-72
2021/05/25 07:44:58;;;;;;;7.00;1.10;;;;;;;10.19;85.89;100368.11;642909;221;24815;-72
2021/05/25 07:47:26;;;;;;;2.80;0.77;;;;;;;10.35;85.75;100380.89;637302;225;24868;-72
2021/05/25 07:49:53;;;;;;;1.83;0.80;;;;;;;10.24;85.58;100389.32;649801;221;26988;-71
2021/05/25 07:52:21;;;;;;;2.87;0.87;;;;;;;10.09;86.53;100384.52;649598;221;24811;-71
2021/05/25 07:54:49;;;;;;;1.90;0.80;;;;;;;10.04;87.23;100390.62;637555;224;24852;-72
2021/05/25 07:57:17;;;;;;;0.70;0.70;;;;;;;10.14;87.12;100397.12;632877;226;24852;-72
2021/05/25 07:59:45;;;;;;;1.20;0.83;;;;;;;9.80;86.73;100390.19;633421;225;24876;-72
2021/05/25 08:02:13;;;;;;;1.27;0.90;;;;;;;9.81;89.37;100413.91;636353;225;24881;-73
2021/05/25 08:04:41;;;;;;;2.57;1.00;;;;;;;9.83;88.55;100418.48;643623;221;24862;-72
2021/05/25 08:07:09;;;;;;;1.80;0.80;;;;;;;10.08;87.27;100408.86;634395;225;24858;-73
2021/05/25 08:09:36;;;;;;;1.23;0.90;;;;;;;10.22;85.17;100398.56;649286;220;24815;-71
2021/05/25 08:12:05;;;;;;;2.77;1.20;;;;;;;10.58;85.87;100413.92;648278;221;28334;-72
2021/05/25 08:14:34;;;;;;;7.30;1.10;;;;;;;10.39;86.13;100411.33;649049;221;24805;-72
2021/05/25 08:17:06;;;;;;;1.40;0.97;;;;;;;10.04;85.48;100407.98;650240;220;23829;-72
2021/05/25 08:19:34;;;;;;;1.40;1.30;;;;;;;10.03;86.45;100437.05;634693;225;24970;-73
2021/05/25 08:22:00;;;;;;;3.40;1.00;;;;;;;10.04;86.17;100430.08;644244;218;32497;-72
2021/05/25 08:24:28;;;;;;;2.63;1.50;;;;;;;9.79;89.23;100448.29;648268;220;24820;-72
2021/05/25 08:26:56;;;;;;;2.67;1.57;;;;;;;9.77;91.34;100464.49;649502;220;24837;-72
2021/05/25 08:29:24;;;;;;;1.57;0.93;;;;;;;9.67;90.63;100449.36;646005;220;24839;-72
2021/05/25 08:31:51;;;;;;;2.67;1.10;;;;;;;9.76;89.99;100458.48;642144;221;24887;-71
2021/05/25 08:34:19;;;;;;;2.00;1.00;;;;;;;9.82;89.17;100453.22;644240;220;43185;-72
2021/05/25 08:36:47;;;;;;;3.17;1.03;;;;;;;10.02;89.03;100448.88;650607;221;24120;-72
2021/05/25 08:39:15;;;;;;;2.60;1.00;;;;;;;10.01;88.50;100455.03;633299;223;32656;-72
2021/05/25 08:41:43;;;;;;;2.83;1.07;;;;;;;10.14;88.42;100462.57;650360;220;23876;-72
2021/05/25 08:44:11;;;;;;;2.30;1.73;;;;;;;10.34;88.23;100456.44;649941;220;24808;-71
2021/05/25 08:46:44;;;;;;;3.37;1.13;;;;;;;10.29;87.64;100459.94;649236;221;24844;-71
2021/05/25 08:49:12;;;;;;;6.40;1.60;;;;;;;10.56;86.97;100460.53;636906;224;23890;-72
2021/05/25 08:51:40;;;;;;;2.30;1.07;;;;;;;10.55;86.89;100451.88;648729;220;24815;-72
2021/05/25 08:54:09;;;;;;;2.30;0.80;;;;;;;10.55;85.67;100458.87;649099;221;24821;-72
2021/05/25 08:56:37;;;;;;;4.37;1.00;;;;;;;10.86;85.88;100463.42;639876;220;25038;-72
2021/05/25 08:59:05;;;;;;;3.73;1.40;;;;;;;10.99;83.73;100447.84;636953;221;32615;-73
2021/05/25 09:01:33;;;;;;;3.60;1.33;;;;;;;11.12;83.38;100453.18;641991;219;24860;-72
2021/05/25 09:04:01;;;;;;;2.33;1.40;;;;;;;11.11;85.03;100471.06;631301;225;24899;-72
2021/05/25 09:06:36;;;;;;;4.87;1.30;;;;;;;11.46;83.67;100461.28;649791;220;24818;-72
2021/05/25 09:09:07;;;;;;;4.83;1.30;;;;;;;11.22;82.71;100453.48;637317;225;25178;-72
2021/05/25 09:11:52;;;;;;;3.20;1.10;;;;;;;11.50;81.74;100451.72;642609;221;32470;-73
2021/05/25 09:14:20;;;;;;;4.63;1.20;;;;;;;11.39;81.56;100462.32;647667;221;23720;-72
2021/05/25 09:16:48;;;;;;;1.80;1.10;;;;;;;11.59;81.28;100454.77;638070;223;27061;-72
2021/05/25 09:19:16;;;;;;;9.93;1.10;;;;;;;11.15;81.20;100451.14;637596;222;24887;-72
2021/05/25 09:21:44;;;;;;;5.20;1.47;;;;;;;11.76;80.49;100457.55;630769;225;25314;-73
2021/05/25 09:24:12;;;;;;;9.70;1.40;;;;;;;12.23;79.37;100467.31;644757;220;32503;-72
2021/05/25 09:26:43;;;;;;;7.10;1.90;;;;;;;12.45;77.62;100440.78;649590;220;24813;-73
2021/05/25 09:29:08;;;;;;;5.63;1.87;;;;;;;12.99;76.86;100441.46;648650;220;23849;-73
2021/05/25 09:31:38;;;;;;;2.40;1.20;;;;;;;12.25;77.44;100428.89;645728;221;24824;-72
2021/05/25 09:34:10;;;;;;;3.70;1.10;;;;;;;12.87;75.52;100424.91;648658;219;24799;-73
2021/05/25 09:36:49;;;;;;;3.33;1.67;;;;;;;12.17;75.02;100453.09;641939;222;24898;-73
2021/05/25 09:39:17;;;;;;;6.47;1.30;;;;;;;12.01;76.75;100418.24;636594;222;32737;-72
2021/05/25 09:41:56;;;;;;;4.90;1.40;;;;;;;12.41;77.23;100417.77;641886;221;22769;-71
2021/05/25 09:44:25;;;;;;;3.90;1.37;;;;;;;12.75;74.70;100426.95;642756;221;24856;-71
2021/05/25 09:46:52;;;;;;;5.30;1.40;;;;;;;13.03;74.08;100440.17;639411;221;24930;-73
2021/05/25 09:49:21;;;;;;;2.43;1.37;;;;;;;12.82;73.71;100429.30;644012;221;24872;-73
2021/05/25 09:51:48;;;;;;;4.40;1.33;;;;;;;12.64;75.13;100442.86;638183;221;24853;-72
2021/05/25 09:54:20;;;;;;;10.30;1.50;;;;;;;12.17;74.94;100437.45;639145;221;24924;-72
2021/05/25 09:56:57;;;;;;;3.57;1.33;;;;;;;12.43;77.98;100449.73;640223;221;24862;-72
2021/05/25 09:59:30;;;;;;;5.43;1.33;;;;;;;12.31;77.13;100459.58;638451;221;24862;-73
2021/05/25 10:01:58;;;;;;;5.37;1.20;;;;;;;12.17;79.26;100458.80;637913;221;24863;-72
2021/05/25 10:04:27;;;;;;;4.60;1.57;;;;;;;11.71;77.51;100452.78;637977;221;24947;-71
2021/05/25 10:06:53;;;;;;;4.70;1.20;;;;;;;11.55;77.14;100465.62;638694;221;32497;-72
2021/05/25 10:09:21;;;;;;;9.73;1.90;;;;;;;11.68;77.09;100463.47;637444;225;24890;-71
2021/05/25 10:11:50;;;;;;;2.60;1.10;;;;;;;11.83;77.14;100476.88;652255;220;31237;-72
2021/05/25 10:14:19;;;;;;;1.93;1.03;;;;;;;11.69;78.52;100476.86;648416;218;23873;-71
2021/05/25 10:16:47;;;;;;;3.00;1.07;;;;;;;11.69;78.31;100482.56;649292;221;23844;-72
2021/05/25 10:19:25;;;;;;;2.77;1.03;;;;;;;11.70;77.66;100490.71;645194;221;24855;-73
2021/05/25 10:21:43;;;;;;;1.57;1.10;;;;;;;11.67;77.51;100487.89;640639;221;24864;-72
2021/05/25 10:24:11;;;;;;;4.15;1.15;;;;;;;11.67;77.76;100481.37;634728;222;32696;-72
2021/05/25 10:26:39;;;;;;;9.30;1.13;;;;;;;11.66;78.68;100497.97;639036;222;23791;-73
2021/05/25 10:29:07;;;;;;;2.90;1.20;;;;;;;11.83;76.83;100490.73;645416;221;24951;-72
2021/05/25 10:31:36;;;;;;;5.60;1.40;;;;;;;12.01;76.00;100488.14;635721;225;24883;-72
2021/05/25 10:34:13;;;;;;;2.70;1.17;;;;;;;12.20;76.27;100498.91;650530;221;24846;-73
2021/05/25 10:36:43;;;;;;;4.83;1.40;;;;;;;12.26;75.90;100491.81;649569;221;24816;-72
2021/05/25 10:39:11;;;;;;;5.30;1.20;;;;;;;12.33;75.51;100487.63;627866;225;28166;-72
2021/05/25 10:41:42;;;;;;;2.33;1.00;;;;;;;12.96;74.14;100466.58;647686;220;24845;-72
2021/05/25 10:44:07;;;;;;;3.00;1.00;;;;;;;13.96;73.28;100462.42;649258;218;23861;-73
2021/05/25 10:46:35;;;;;;;2.10;1.20;;;;;;;13.27;70.63;100447.34;651758;220;24826;-73
2021/05/25 10:49:09;;;;;;;3.63;1.20;;;;;;;13.74;69.78;100443.41;637067;225;23932;-72
2021/05/25 10:51:48;;;;;;;2.40;1.40;;;;;;;13.65;69.52;100435.56;636574;225;23886;-73
2021/05/25 10:54:23;;;;;;;3.20;1.00;;;;;;;14.30;67.06;100419.60;648389;221;23841;-72
2021/05/25 10:56:51;;;;;;;5.27;1.40;;;;;;;13.65;68.49;100421.19;635225;225;25204;-73
2021/05/25 10:59:19;;;;;;;5.10;1.30;;;;;;;13.80;68.75;100436.25;643686;220;32516;-71
2021/05/25 11:01:53;;;;;;;5.83;1.43;;;;;;;13.94;67.43;100433.00;634904;225;22783;-73
2021/05/25 11:04:23;;;;;;;4.27;1.33;;;;;;;14.41;67.23;100427.13;636696;225;24863;-72
2021/05/25 11:06:51;;;;;;;4.03;1.30;;;;;;;13.94;66.24;100412.09;631707;225;32911;-73
2021/05/25 11:09:23;;;;;;;2.70;1.10;;;;;;;13.91;67.06;100432.81;648889;221;22783;-71
2021/05/25 11:12:02;;;;;;;7.37;1.50;;;;;;;14.01;66.01;100432.67;644542;220;32483;-72
2021/05/25 11:14:30;;;;;;;4.27;1.10;;;;;;;14.21;65.72;100424.83;638555;225;22737;-71
2021/05/25 11:16:58;;;;;;;3.87;1.50;;;;;;;14.22;65.42;100419.95;635704;225;24052;-72
2021/05/25 11:19:37;;;;;;;3.70;1.40;;;;;;;14.57;65.09;100450.70;647037;221;24828;-73
2021/05/25 11:24:59;;;;;;;5.20;1.57;;;;;;;14.29;66.08;100414.05;646052;221;27032;-72
2021/05/25 11:27:29;;;;;;;5.47;1.20;;;;;;;14.30;64.71;100423.04;648991;220;24976;-72
2021/05/25 11:29:59;;;;;;;3.35;1.10;;;;;;;14.85;63.87;100425.78;631528;225;32952;-73
2021/05/25 11:32:25;;;;;;;4.40;1.17;;;;;;;14.55;63.02;100414.22;636666;225;22748;-72
2021/05/25 11:34:56;;;;;;;2.60;0.90;;;;;;;15.38;64.87;100436.08;635602;225;23915;-73
2021/05/25 11:37:24;;;;;;;3.03;1.23;;;;;;;15.28;63.31;100422.36;650079;221;24814;-71